Time,TemperatureF,DewpointF,PressureIn,WindDirection,WindDirectionDegrees,WindSpeedMPH,WindSpeedGustMPH,Humidity,HourlyPrecipIn,Conditions,Clouds,dailyrainin,SolarRadiationWatts/m^2,SoftwareType,DateUTC
2013-04-15 00:03:00,58.0,36.0,-100.00,SSE,149,3.0,8.0,43,0.00,,,0.00,0.000000,,2013-04-15 04:03:00,
2013-04-15 00:33:00,56.0,37.0,-100.00,SE,131,2.0,7.0,49,0.00,,,0.00,0.000000,,2013-04-15 04:33:00,
2013-04-15 00:43:00,56.0,37.0,-100.00,SE,131,2.0,7.0,49,0.00,,,0.00,0.000000,,2013-04-15 04:43:00,
2013-04-15 00:53:00,56.0,37.0,-100.00,SE,131,2.0,7.0,49,0.00,,,0.00,0.000000,,2013-04-15 04:53:00,
2013-04-15 01:03:00,56.0,37.0,-100.00,SE,131,2.0,7.0,49,0.00,,,0.00,0.000000,,2013-04-15 05:03:00,
2013-04-15 01:12:00,56.0,37.0,-100.00,SE,131,2.0,7.0,49,0.00,,,0.00,0.000000,,2013-04-15 05:12:00,
2013-04-15 01:33:00,54.0,38.0,-100.00,East,94,2.0,4.0,54,0.00,,,0.00,0.000000,,2013-04-15 05:33:00,
2013-04-15 01:43:00,54.0,38.0,-100.00,East,94,2.0,4.0,54,0.00,,,0.00,0.000000,,2013-04-15 05:43:00,
2013-04-15 01:53:00,54.0,38.0,-100.00,East,94,2.0,4.0,54,0.00,,,0.00,0.000000,,2013-04-15 05:53:00,
2013-04-15 02:02:00,54.0,38.0,-100.00,East,94,2.0,4.0,54,0.00,,,0.00,0.000000,,2013-04-15 06:02:00,
2013-04-15 02:12:00,54.0,38.0,-100.00,East,94,2.0,4.0,54,0.00,,,0.00,0.000000,,2013-04-15 06:12:00,
2013-04-15 02:13:00,55.0,41.0,-100.00,ESE,106,2.0,3.0,59,0.00,,,0.00,0.000000,,2013-04-15 06:13:00,
2013-04-15 02:34:00,55.0,41.0,-100.00,ESE,106,2.0,3.0,59,0.00,,,0.00,0.000000,,2013-04-15 06:34:00,
2013-04-15 02:43:00,55.0,41.0,-100.00,ESE,106,2.0,3.0,59,0.00,,,0.00,0.000000,,2013-04-15 06:43:00,
2013-04-15 02:53:00,55.0,41.0,-100.00,ESE,106,2.0,3.0,59,0.00,,,0.00,0.000000,,2013-04-15 06:53:00,
2013-04-15 03:03:00,55.0,41.0,-100.00,ESE,106,2.0,3.0,59,0.00,,,0.00,0.000000,,2013-04-15 07:03:00,
2013-04-15 03:13:00,57.0,41.0,-100.00,ESE,123,4.0,8.0,55,0.00,,,0.00,0.000000,,2013-04-15 07:13:00,
2013-04-15 03:43:00,57.0,41.0,-100.00,ESE,123,4.0,8.0,55,0.00,,,0.00,0.000000,,2013-04-15 07:43:00,
2013-04-15 03:54:00,57.0,41.0,-100.00,ESE,123,4.0,8.0,55,0.00,,,0.00,0.000000,,2013-04-15 07:54:00,
2013-04-15 04:03:00,57.0,41.0,-100.00,ESE,123,4.0,8.0,55,0.00,,,0.00,0.000000,,2013-04-15 08:03:00,
2013-04-15 04:13:00,56.0,41.0,-100.00,ESE,120,4.0,8.0,56,0.00,,,0.00,0.000000,,2013-04-15 08:13:00,
2013-04-15 04:43:00,56.0,41.0,-100.00,ESE,120,4.0,8.0,56,0.00,,,0.00,0.000000,,2013-04-15 08:43:00,
2013-04-15 04:52:00,56.0,41.0,-100.00,ESE,120,4.0,8.0,56,0.00,,,0.00,0.000000,,2013-04-15 08:52:00,
2013-04-15 05:03:00,56.0,41.0,-100.00,ESE,120,4.0,8.0,56,0.00,,,0.00,0.000000,,2013-04-15 09:03:00,
2013-04-15 05:13:00,55.0,41.0,-100.00,SE,128,5.0,10.0,60,0.00,,,0.00,0.000000,,2013-04-15 09:13:00,
2013-04-15 05:33:00,55.0,41.0,-100.00,SE,128,5.0,10.0,60,0.00,,,0.00,0.000000,,2013-04-15 09:33:00,
2013-04-15 05:43:00,55.0,41.0,-100.00,SE,128,5.0,10.0,60,0.00,,,0.00,0.000000,,2013-04-15 09:43:00,
2013-04-15 05:53:00,55.0,41.0,-100.00,SE,128,5.0,10.0,60,0.00,,,0.00,0.000000,,2013-04-15 09:53:00,
2013-04-15 06:03:00,55.0,41.0,-100.00,SE,128,5.0,10.0,60,0.00,,,0.00,0.000000,,2013-04-15 10:03:00,
2013-04-15 06:33:00,54.0,43.0,-100.00,SE,141,4.0,10.0,66,0.00,,,0.00,0.000000,,2013-04-15 10:33:00,
2013-04-15 06:42:00,54.0,43.0,-100.00,SE,141,4.0,10.0,66,0.00,,,0.00,0.000000,,2013-04-15 10:42:00,
2013-04-15 06:53:00,54.0,43.0,-100.00,SE,141,4.0,10.0,66,0.00,,,0.00,0.000000,,2013-04-15 10:53:00,
2013-04-15 07:03:00,54.0,43.0,-100.00,SE,141,4.0,10.0,66,0.00,,,0.00,0.000000,,2013-04-15 11:03:00,
2013-04-15 07:12:00,54.0,43.0,-100.00,SE,141,4.0,10.0,66,0.00,,,0.00,0.000000,,2013-04-15 11:12:00,
2013-04-15 07:13:00,54.0,42.0,-100.00,SSE,152,4.0,8.0,64,0.00,,,0.00,5.000000,,2013-04-15 11:13:00,
2013-04-15 07:33:00,54.0,42.0,-100.00,SSE,152,4.0,8.0,64,0.00,,,0.00,5.000000,,2013-04-15 11:33:00,
2013-04-15 07:44:00,54.0,42.0,-100.00,SSE,152,4.0,8.0,64,0.00,,,0.00,5.000000,,2013-04-15 11:44:00,
2013-04-15 08:05:00,54.0,42.0,-100.00,SSE,152,4.0,8.0,64,0.00,,,0.00,5.000000,,2013-04-15 12:05:00,
2013-04-15 08:13:00,56.0,44.0,-100.00,SSE,152,3.0,7.0,64,0.00,,,0.00,49.000000,,2013-04-15 12:13:00,
2013-04-15 08:34:00,56.0,44.0,-100.00,SSE,152,3.0,7.0,64,0.00,,,0.00,49.000000,,2013-04-15 12:34:00,
2013-04-15 08:43:00,56.0,44.0,-100.00,SSE,152,3.0,7.0,64,0.00,,,0.00,49.000000,,2013-04-15 12:43:00,
2013-04-15 08:53:00,56.0,44.0,-100.00,SSE,152,3.0,7.0,64,0.00,,,0.00,49.000000,,2013-04-15 12:53:00,
2013-04-15 09:05:00,56.0,44.0,-100.00,SSE,152,3.0,7.0,64,0.00,,,0.00,49.000000,,2013-04-15 13:05:00,
2013-04-15 09:13:00,59.0,46.0,-100.00,SE,131,4.0,8.0,62,0.00,,,0.00,195.000000,,2013-04-15 13:13:00,
2013-04-15 09:43:00,59.0,46.0,-100.00,SE,131,4.0,8.0,62,0.00,,,0.00,195.000000,,2013-04-15 13:43:00,
2013-04-15 09:54:00,59.0,46.0,-100.00,SE,131,4.0,8.0,62,0.00,,,0.00,195.000000,,2013-04-15 13:54:00,
2013-04-15 10:05:00,59.0,46.0,-100.00,SE,131,4.0,8.0,62,0.00,,,0.00,195.000000,,2013-04-15 14:05:00,
2013-04-15 10:13:00,60.0,46.0,-100.00,SE,133,4.0,9.0,59,0.00,,,0.00,300.000000,,2013-04-15 14:13:00,
2013-04-15 10:34:00,60.0,46.0,-100.00,SE,133,4.0,9.0,59,0.00,,,0.00,300.000000,,2013-04-15 14:34:00,
2013-04-15 10:44:00,60.0,46.0,-100.00,SE,133,4.0,9.0,59,0.00,,,0.00,300.000000,,2013-04-15 14:44:00,
2013-04-15 10:55:00,60.0,46.0,-100.00,SE,133,4.0,9.0,59,0.00,,,0.00,300.000000,,2013-04-15 14:55:00,
2013-04-15 11:04:00,60.0,46.0,-100.00,SE,133,4.0,9.0,59,0.00,,,0.00,300.000000,,2013-04-15 15:04:00,
2013-04-15 11:13:00,61.0,49.0,-100.00,SE,142,4.0,10.0,65,0.00,,,0.00,350.000000,,2013-04-15 15:13:00,
2013-04-15 11:37:00,61.0,49.0,-100.00,SE,142,4.0,10.0,65,0.00,,,0.00,350.000000,,2013-04-15 15:37:00,
2013-04-15 11:45:00,61.0,49.0,-100.00,SE,142,4.0,10.0,65,0.00,,,0.00,350.000000,,2013-04-15 15:45:00,
2013-04-15 11:55:00,61.0,49.0,-100.00,SE,142,4.0,10.0,65,0.00,,,0.00,350.000000,,2013-04-15 15:55:00,
2013-04-15 12:05:00,61.0,49.0,-100.00,SE,142,4.0,10.0,65,0.00,,,0.00,350.000000,,2013-04-15 16:05:00,
2013-04-15 12:13:00,64.0,52.0,-100.00,SE,139,5.0,11.0,65,0.00,,,0.00,395.000000,,2013-04-15 16:13:00,
2013-04-15 12:34:00,64.0,52.0,-100.00,SE,139,5.0,11.0,65,0.00,,,0.00,395.000000,,2013-04-15 16:34:00,
2013-04-15 12:44:00,64.0,52.0,-100.00,SE,139,5.0,11.0,65,0.00,,,0.00,395.000000,,2013-04-15 16:44:00,
2013-04-15 12:54:00,64.0,52.0,-100.00,SE,139,5.0,11.0,65,0.00,,,0.00,395.000000,,2013-04-15 16:54:00,
2013-04-15 13:04:00,64.0,52.0,-100.00,SE,139,5.0,11.0,65,0.00,,,0.00,395.000000,,2013-04-15 17:04:00,
2013-04-15 13:13:00,65.0,48.0,-100.00,SE,133,6.0,12.0,54,0.00,,,0.00,700.000000,,2013-04-15 17:13:00,
2013-04-15 13:33:00,65.0,48.0,-100.00,SE,133,6.0,12.0,54,0.00,,,0.00,700.000000,,2013-04-15 17:33:00,
2013-04-15 13:53:00,65.0,48.0,-100.00,SE,133,6.0,12.0,54,0.00,,,0.00,700.000000,,2013-04-15 17:53:00,
2013-04-15 14:04:00,65.0,48.0,-100.00,SE,133,6.0,12.0,54,0.00,,,0.00,700.000000,,2013-04-15 18:04:00,
2013-04-15 14:33:00,65.0,51.0,-100.00,SE,136,6.0,12.0,60,0.00,,,0.00,334.000000,,2013-04-15 18:33:00,
2013-04-15 14:42:00,65.0,51.0,-100.00,SE,136,6.0,12.0,60,0.00,,,0.00,334.000000,,2013-04-15 18:42:00,
2013-04-15 14:52:00,65.0,51.0,-100.00,SE,136,6.0,12.0,60,0.00,,,0.00,334.000000,,2013-04-15 18:52:00,
2013-04-15 15:02:00,65.0,51.0,-100.00,SE,136,6.0,12.0,60,0.00,,,0.00,334.000000,,2013-04-15 19:02:00,
2013-04-15 15:12:00,65.0,51.0,-100.00,SE,136,6.0,12.0,60,0.00,,,0.00,334.000000,,2013-04-15 19:12:00,
2013-04-15 15:59:00,66.0,50.0,-100.00,SE,142,6.0,11.0,57,0.00,,,0.00,346.000000,,2013-04-15 19:59:00,
2013-04-15 16:02:00,66.0,50.0,-100.00,SE,142,6.0,11.0,57,0.00,,,0.00,346.000000,,2013-04-15 20:02:00,
2013-04-15 16:12:00,66.0,50.0,-100.00,SE,142,6.0,11.0,57,0.00,,,0.00,346.000000,,2013-04-15 20:12:00,
2013-04-15 16:32:00,65.0,50.0,-100.00,SE,130,8.0,16.0,59,0.00,,,0.00,308.000000,,2013-04-15 20:32:00,
2013-04-15 16:42:00,65.0,50.0,-100.00,SE,130,8.0,16.0,59,0.00,,,0.00,308.000000,,2013-04-15 20:42:00,
2013-04-15 16:52:00,65.0,50.0,-100.00,SE,130,8.0,16.0,59,0.00,,,0.00,308.000000,,2013-04-15 20:52:00,
2013-04-15 17:02:00,65.0,50.0,-100.00,SE,130,8.0,16.0,59,0.00,,,0.00,308.000000,,2013-04-15 21:02:00,
2013-04-15 17:12:00,65.0,50.0,-100.00,SE,130,8.0,16.0,59,0.00,,,0.00,308.000000,,2013-04-15 21:12:00,
2013-04-15 17:13:00,62.0,45.0,-100.00,SE,146,6.0,12.0,53,0.00,,,0.00,170.000000,,2013-04-15 21:13:00,
2013-04-15 17:43:00,62.0,45.0,-100.00,SE,146,6.0,12.0,53,0.00,,,0.00,170.000000,,2013-04-15 21:43:00,
2013-04-15 17:53:00,62.0,45.0,-100.00,SE,146,6.0,12.0,53,0.00,,,0.00,170.000000,,2013-04-15 21:53:00,
2013-04-15 18:02:00,62.0,45.0,-100.00,SE,146,6.0,12.0,53,0.00,,,0.00,170.000000,,2013-04-15 22:02:00,
2013-04-15 18:42:00,61.0,47.0,-100.00,SSE,150,5.0,14.0,60,0.00,,,0.00,48.000000,,2013-04-15 22:42:00,
2013-04-15 18:52:00,61.0,47.0,-100.00,SSE,150,5.0,14.0,60,0.00,,,0.00,48.000000,,2013-04-15 22:52:00,
2013-04-15 19:02:00,61.0,47.0,-100.00,SSE,150,5.0,14.0,60,0.00,,,0.00,48.000000,,2013-04-15 23:02:00,
2013-04-15 19:12:00,61.0,47.0,-100.00,SSE,150,5.0,14.0,60,0.00,,,0.00,48.000000,,2013-04-15 23:12:00,
2013-04-15 19:32:00,60.0,49.0,-100.00,SSE,147,4.0,15.0,66,0.00,,,0.00,51.000000,,2013-04-15 23:32:00,
2013-04-15 19:42:00,60.0,49.0,-100.00,SSE,147,4.0,15.0,66,0.00,,,0.00,51.000000,,2013-04-15 23:42:00,
2013-04-15 19:52:00,60.0,49.0,-100.00,SSE,147,4.0,15.0,66,0.00,,,0.00,51.000000,,2013-04-15 23:52:00,
2013-04-15 20:03:00,60.0,49.0,-100.00,SSE,147,4.0,15.0,66,0.00,,,0.00,51.000000,,2013-04-16 00:03:00,
2013-04-15 20:12:00,60.0,49.0,-100.00,SSE,147,4.0,15.0,66,0.00,,,0.00,51.000000,,2013-04-16 00:12:00,
2013-04-15 21:32:00,58.0,46.0,-100.00,SSE,148,4.0,12.0,65,-99.99,,,0.00,0.000000,,2013-04-16 01:32:00,
2013-04-15 21:42:00,58.0,46.0,-100.00,SSE,148,4.0,12.0,65,-99.99,,,0.00,0.000000,,2013-04-16 01:42:00,
2013-04-15 21:52:00,58.0,46.0,-100.00,SSE,148,4.0,12.0,65,-99.99,,,0.00,0.000000,,2013-04-16 01:52:00,
2013-04-15 22:02:00,58.0,46.0,-100.00,SSE,148,4.0,12.0,65,-99.99,,,0.00,0.000000,,2013-04-16 02:02:00,
2013-04-15 22:12:00,58.0,46.0,-100.00,SSE,148,4.0,12.0,65,-99.99,,,0.00,0.000000,,2013-04-16 02:12:00,
2013-04-15 22:32:00,58.0,46.0,-100.00,SSE,153,5.0,11.0,65,0.00,,,0.00,0.000000,,2013-04-16 02:32:00,
2013-04-15 22:42:00,58.0,46.0,-100.00,SSE,153,5.0,11.0,65,0.00,,,0.00,0.000000,,2013-04-16 02:42:00,
2013-04-15 22:52:00,58.0,46.0,-100.00,SSE,153,5.0,11.0,65,0.00,,,0.00,0.000000,,2013-04-16 02:52:00,
2013-04-15 23:02:00,58.0,46.0,-100.00,SSE,153,5.0,11.0,65,0.00,,,0.00,0.000000,,2013-04-16 03:02:00,
2013-04-15 23:12:00,58.0,46.0,-100.00,SSE,153,5.0,11.0,65,0.00,,,0.00,0.000000,,2013-04-16 03:12:00,
2013-04-15 23:13:00,58.0,46.0,-100.00,SSE,151,5.0,14.0,64,0.00,,,0.00,0.000000,,2013-04-16 03:13:00,
2013-04-15 23:33:00,58.0,46.0,-100.00,SSE,151,5.0,14.0,64,0.00,,,0.00,0.000000,,2013-04-16 03:33:00,
2013-04-15 23:43:00,58.0,46.0,-100.00,SSE,151,5.0,14.0,64,0.00,,,0.00,0.000000,,2013-04-16 03:43:00,
2013-04-15 23:53:00,58.0,46.0,-100.00,SSE,151,5.0,14.0,64,0.00,,,0.00,0.000000,,2013-04-16 03:53:00,